Time;durP1;ratioP1;P1;durP2;ratioP2;P2;SDS_P1;SDS_P2;PMS_P1;PMS_P2;Temp;Humidity;BMP_temperature;BMP_pressure;BME280_temperature;BME280_humidity;BME280_pressure;Samples;Min_cycle;Max_cycle;Signal;HPM_P1;HPM_P2
2023/09/28 00:02:52;;;;;;;11.32;5.43;;;19.80;99.90;;;;;;5073572;28;20589;-65
2023/09/28 00:05:19;;;;;;;9.75;5.25;;;19.70;99.90;;;;;;5061487;28;20048;-65
2023/09/28 00:07:47;;;;;;;9.77;4.95;;;19.70;99.90;;;;;;5073978;28;20059;-65
2023/09/28 00:10:17;;;;;;;7.40;4.80;;;19.70;99.90;;;;;;5059018;28;20055;-65
2023/09/28 00:12:46;;;;;;;8.60;4.72;;;19.60;99.90;;;;;;5073940;28;20045;-65
2023/09/28 00:15:22;;;;;;;11.45;4.88;;;19.50;99.90;;;;;;5073831;28;20032;-65
2023/09/28 00:17:51;;;;;;;11.13;4.95;;;19.50;99.90;;;;;;5072665;28;20051;-65
2023/09/28 00:20:18;;;;;;;8.48;4.70;;;19.40;99.90;;;;;;5072883;28;20021;-66
2023/09/28 00:22:47;;;;;;;12.30;6.13;;;19.40;99.90;;;;;;5073620;28;20032;-65
2023/09/28 00:25:13;;;;;;;11.07;5.28;;;19.30;99.90;;;;;;5074251;28;20031;-65
2023/09/28 00:27:40;;;;;;;8.98;4.78;;;19.30;99.90;;;;;;5087252;28;20036;-64
2023/09/28 00:30:21;;;;;;;8.85;4.55;;;19.30;99.90;;;;;;5094005;28;20040;-65
2023/09/28 00:32:52;;;;;;;9.73;4.75;;;19.30;99.90;;;;;;5079410;28;20076;-65
2023/09/28 00:35:18;;;;;;;8.57;4.95;;;19.20;99.90;;;;;;5068595;28;20075;-64
2023/09/28 00:37:44;;;;;;;9.82;5.00;;;19.20;99.90;;;;;;5069573;28;20116;-64
2023/09/28 00:42:49;;;;;;;9.82;5.30;;;19.20;99.90;;;;;;5074790;28;20033;-65
2023/09/28 00:45:15;;;;;;;8.63;4.97;;;19.10;99.90;;;;;;5072698;28;20468;-65
2023/09/28 00:47:41;;;;;;;9.63;5.50;;;19.10;99.90;;;;;;5073751;28;20044;-64
2023/09/28 00:50:10;;;;;;;10.50;5.15;;;19.10;99.90;;;;;;5072980;28;20434;-64
2023/09/28 00:52:38;;;;;;;10.32;5.82;;;19.00;99.90;;;;;;5073164;28;20131;-64
2023/09/28 00:55:05;;;;;;;12.60;5.95;;;19.00;99.90;;;;;;5061305;28;20017;-64
2023/09/28 00:57:33;;;;;;;11.18;5.63;;;19.00;99.90;;;;;;5053190;28;20033;-65
2023/09/28 01:00:00;;;;;;;8.63;5.07;;;19.00;99.90;;;;;;5052964;28;20039;-65
2023/09/28 01:02:26;;;;;;;11.85;6.15;;;19.10;99.90;;;;;;5067584;28;20106;-65
2023/09/28 01:04:52;;;;;;;11.98;6.10;;;19.00;99.90;;;;;;5073031;28;20449;-65
2023/09/28 01:07:28;;;;;;;9.68;5.05;;;19.10;99.90;;;;;;5073011;28;20031;-65
2023/09/28 01:09:54;;;;;;;15.82;6.05;;;19.20;99.90;;;;;;5072413;28;20459;-65
2023/09/28 01:12:20;;;;;;;15.90;7.03;;;19.30;99.90;;;;;;5059645;28;20119;-64
2023/09/28 01:14:48;;;;;;;13.18;5.72;;;19.30;99.90;;;;;;5052611;28;20067;-65
2023/09/28 01:17:13;;;;;;;17.20;6.82;;;19.40;99.90;;;;;;5052885;28;20040;-65
2023/09/28 01:19:39;;;;;;;14.77;6.82;;;19.40;99.90;;;;;;5070282;28;20040;-65
2023/09/28 01:22:13;;;;;;;16.88;6.25;;;19.50;99.90;;;;;;5072605;28;20605;-65
2023/09/28 01:24:39;;;;;;;17.05;7.25;;;19.50;99.90;;;;;;5072619;28;20541;-65
2023/09/28 01:27:06;;;;;;;15.90;6.35;;;19.50;99.90;;;;;;5072537;28;20025;-65
2023/09/28 01:29:31;;;;;;;16.75;6.43;;;19.50;99.90;;;;;;5068710;28;20033;-66
2023/09/28 01:31:57;;;;;;;17.48;6.47;;;19.50;99.90;;;;;;5072583;28;20483;-65
2023/09/28 01:34:23;;;;;;;22.00;6.57;;;19.50;99.90;;;;;;5072606;28;20028;-65
2023/09/28 01:36:48;;;;;;;18.45;6.78;;;19.40;99.90;;;;;;5072633;28;20036;-66
2023/09/28 01:39:15;;;;;;;21.15;6.18;;;19.50;99.90;;;;;;5072561;28;20589;-66
2023/09/28 01:41:41;;;;;;;12.57;5.22;;;19.40;99.90;;;;;;5071931;28;20107;-65
2023/09/28 01:44:06;;;;;;;18.17;6.32;;;19.40;99.90;;;;;;5071518;28;20116;-65
2023/09/28 01:46:32;;;;;;;15.07;4.40;;;19.40;99.90;;;;;;5064123;28;20468;-65
2023/09/28 01:48:57;;;;;;;14.10;4.15;;;19.30;99.90;;;;;;5062701;28;20123;-66
2023/09/28 01:51:23;;;;;;;12.77;4.28;;;19.30;99.90;;;;;;5071978;28;20048;-66
2023/09/28 01:53:49;;;;;;;15.82;4.50;;;19.30;99.90;;;;;;5074125;28;20020;-65
2023/09/28 01:56:14;;;;;;;17.33;4.75;;;19.30;99.90;;;;;;5083157;28;20062;-65
2023/09/28 01:58:40;;;;;;;13.88;4.40;;;19.20;99.90;;;;;;5079269;28;20604;-65
2023/09/28 02:01:05;;;;;;;16.85;4.47;;;19.30;99.90;;;;;;5077026;28;20072;-65
2023/09/28 02:03:31;;;;;;;15.73;4.03;;;19.20;99.90;;;;;;5071438;28;20040;-66
2023/09/28 02:05:56;;;;;;;12.80;3.50;;;19.20;99.90;;;;;;5075645;28;20024;-66
2023/09/28 02:08:22;;;;;;;25.10;5.68;;;19.10;99.90;;;;;;5078350;28;20038;-66
2023/09/28 02:10:47;;;;;;;18.40;3.55;;;19.10;99.90;;;;;;5079290;28;20109;-64
2023/09/28 02:13:13;;;;;;;14.35;3.97;;;19.10;99.90;;;;;;5089464;28;20055;-65
2023/09/28 02:15:42;;;;;;;13.80;3.50;;;19.10;99.90;;;;;;5079590;28;20074;-65
2023/09/28 02:18:08;;;;;;;14.23;3.70;;;19.10;99.90;;;;;;5075915;28;20044;-65
2023/09/28 02:20:34;;;;;;;11.77;3.78;;;19.00;99.90;;;;;;5074014;28;20066;-65
2023/09/28 02:23:00;;;;;;;18.55;3.53;;;19.00;99.90;;;;;;5076147;28;20090;-65
2023/09/28 02:25:29;;;;;;;13.10;3.00;;;19.00;99.90;;;;;;5076320;28;20033;-65
2023/09/28 02:27:54;;;;;;;17.73;3.58;;;19.00;99.90;;;;;;5075457;28;20028;-65
2023/09/28 02:30:22;;;;;;;9.70;3.05;;;19.00;99.90;;;;;;5078059;28;20465;-65
2023/09/28 02:32:49;;;;;;;16.10;3.42;;;18.90;99.90;;;;;;5078077;28;20072;-66
2023/09/28 02:35:16;;;;;;;15.88;3.38;;;18.90;99.90;;;;;;5077622;28;20111;-66
2023/09/28 02:37:44;;;;;;;15.82;3.78;;;18.90;99.90;;;;;;5075713;28;20542;-66
2023/09/28 02:40:11;;;;;;;14.60;3.40;;;18.80;99.90;;;;;;5078066;28;20066;-65
2023/09/28 02:42:36;;;;;;;16.88;3.60;;;18.80;99.90;;;;;;5078092;28;20071;-65
2023/09/28 02:45:11;;;;;;;19.80;3.63;;;18.80;99.90;;;;;;5078017;28;20041;-65
2023/09/28 02:47:37;;;;;;;19.35;3.25;;;18.80;99.90;;;;;;5078091;28;20033;-64
2023/09/28 02:50:06;;;;;;;20.05;4.07;;;18.70;99.90;;;;;;5077748;28;20193;-64
2023/09/28 02:52:32;;;;;;;24.20;4.53;;;18.70;99.90;;;;;;5077328;28;20037;-64
2023/09/28 02:54:58;;;;;;;20.58;4.07;;;18.60;99.90;;;;;;5076032;28;20059;-64
2023/09/28 02:57:23;;;;;;;23.65;4.40;;;18.60;99.90;;;;;;5077895;28;20052;-65
2023/09/28 02:59:49;;;;;;;29.15;4.85;;;18.60;99.90;;;;;;5078009;28;20044;-65
2023/09/28 03:02:14;;;;;;;26.10;4.40;;;18.50;99.90;;;;;;5077711;28;20095;-65
2023/09/28 03:04:40;;;;;;;24.70;4.72;;;18.50;99.90;;;;;;5077697;28;20433;-65
2023/09/28 03:07:06;;;;;;;30.70;6.43;;;18.40;99.90;;;;;;5077649;28;20028;-65
2023/09/28 03:09:33;;;;;;;27.25;5.22;;;18.40;99.90;;;;;;5077384;28;20025;-65
2023/09/28 03:11:58;;;;;;;26.95;5.97;;;18.40;99.90;;;;;;5075920;28;20033;-65
2023/09/28 03:14:25;;;;;;;29.25;5.82;;;18.30;99.90;;;;;;5074956;28;20024;-64
2023/09/28 03:16:51;;;;;;;32.50;6.22;;;18.30;99.90;;;;;;5076138;28;20033;-65
2023/09/28 03:19:16;;;;;;;34.85;5.75;;;18.30;99.90;;;;;;5074063;28;20063;-65
2023/09/28 03:21:44;;;;;;;32.10;5.25;;;18.20;99.90;;;;;;5074134;28;20031;-65
2023/09/28 03:24:10;;;;;;;33.10;6.28;;;18.30;99.90;;;;;;5074607;28;20036;-65
2023/09/28 03:26:35;;;;;;;28.23;5.43;;;18.30;99.90;;;;;;5074117;28;20021;-65
2023/09/28 03:29:01;;;;;;;33.38;6.00;;;18.30;99.90;;;;;;5071675;28;20044;-65
2023/09/28 03:31:32;;;;;;;32.03;7.03;;;18.40;99.90;;;;;;5074650;28;20047;-64
2023/09/28 03:33:58;;;;;;;29.15;5.63;;;18.50;99.90;;;;;;5078680;28;20495;-65
2023/09/28 03:36:24;;;;;;;28.55;6.07;;;18.50;99.90;;;;;;5087572;28;20033;-65
2023/09/28 03:38:50;;;;;;;26.67;5.43;;;18.50;99.90;;;;;;5085319;28;20035;-64
2023/09/28 03:41:17;;;;;;;30.23;6.60;;;18.50;99.90;;;;;;5080182;28;20081;-65
2023/09/28 03:43:43;;;;;;;29.98;5.80;;;18.50;99.90;;;;;;5079298;28;20075;-65
2023/09/28 03:46:09;;;;;;;31.95;6.03;;;18.50;99.90;;;;;;5078748;28;20486;-65
2023/09/28 03:48:35;;;;;;;32.35;6.05;;;18.50;99.90;;;;;;5085504;28;20112;-65
2023/09/28 03:51:00;;;;;;;30.50;6.07;;;18.50;99.90;;;;;;5086424;28;20052;-65
2023/09/28 03:53:26;;;;;;;31.02;7.00;;;18.50;99.90;;;;;;5078514;28;20031;-65
2023/09/28 03:55:52;;;;;;;32.50;8.27;;;18.50;99.90;;;;;;5090775;28;20054;-65
2023/09/28 03:58:18;;;;;;;29.15;6.38;;;18.50;99.90;;;;;;5080376;28;20043;-66
2023/09/28 04:00:43;;;;;;;33.10;7.55;;;18.50;99.90;;;;;;5079202;28;20043;-64
2023/09/28 04:03:09;;;;;;;35.70;7.43;;;18.40;99.90;;;;;;5085934;28;20028;-65
2023/09/28 04:05:35;;;;;;;33.78;9.05;;;18.40;99.90;;;;;;5077481;28;20060;-65
2023/09/28 04:08:00;;;;;;;32.35;9.25;;;18.30;99.90;;;;;;5082619;28;20063;-64
2023/09/28 04:10:27;;;;;;;29.13;5.60;;;18.30;99.90;;;;;;5086631;28;20036;-64
2023/09/28 04:12:53;;;;;;;32.60;7.28;;;18.30;99.90;;;;;;5078764;28;20064;-64
2023/09/28 04:15:18;;;;;;;32.50;6.95;;;18.20;99.90;;;;;;5073832;28;20507;-65
2023/09/28 04:17:44;;;;;;;28.70;5.57;;;18.20;99.90;;;;;;5079810;28;20040;-65
2023/09/28 04:20:10;;;;;;;32.33;7.32;;;18.30;99.90;;;;;;5064956;28;20623;-65
2023/09/28 04:22:36;;;;;;;28.40;7.13;;;18.30;99.90;;;;;;5084660;28;20028;-65
2023/09/28 04:25:02;;;;;;;28.85;7.70;;;18.30;99.90;;;;;;5071125;28;20089;-65
2023/09/28 04:27:27;;;;;;;29.90;7.13;;;18.40;99.90;;;;;;5089832;28;20039;-65
2023/09/28 04:29:54;;;;;;;29.88;7.20;;;18.40;99.90;;;;;;5090679;28;20020;-65
2023/09/28 04:32:20;;;;;;;28.25;7.05;;;18.40;99.90;;;;;;5080070;28;20070;-65
2023/09/28 04:34:45;;;;;;;29.10;5.90;;;18.40;99.90;;;;;;5078995;28;20118;-65
2023/09/28 04:37:12;;;;;;;30.92;8.15;;;18.30;99.90;;;;;;5075895;28;20025;-65
2023/09/28 04:39:37;;;;;;;29.02;8.27;;;18.20;99.90;;;;;;5090233;28;20028;-65
2023/09/28 04:42:04;;;;;;;28.95;7.18;;;18.20;99.90;;;;;;5078012;28;20028;-65
2023/09/28 04:44:30;;;;;;;36.53;9.23;;;18.10;99.90;;;;;;5085593;28;20115;-65
2023/09/28 04:46:55;;;;;;;32.22;8.13;;;18.00;99.90;;;;;;5085023;28;20107;-65
2023/09/28 04:49:21;;;;;;;34.67;8.07;;;18.00;99.90;;;;;;5077897;28;20021;-65
2023/09/28 04:51:47;;;;;;;25.95;7.57;;;17.90;99.90;;;;;;5084868;28;20088;-65
2023/09/28 04:54:14;;;;;;;30.85;6.38;;;17.80;99.90;;;;;;5077653;28;20020;-65
2023/09/28 04:56:40;;;;;;;28.50;6.45;;;17.80;99.90;;;;;;5083945;28;20036;-65
2023/09/28 04:59:05;;;;;;;27.08;6.72;;;17.70;99.90;;;;;;5086313;28;20081;-65
2023/09/28 05:01:31;;;;;;;27.15;6.30;;;17.70;99.90;;;;;;5076478;28;20036;-65
2023/09/28 05:03:57;;;;;;;25.35;5.95;;;17.60;99.90;;;;;;5076267;28;20069;-65
2023/09/28 05:06:22;;;;;;;29.92;7.15;;;17.60;99.90;;;;;;5086256;28;20074;-65
2023/09/28 05:08:49;;;;;;;32.00;5.72;;;17.60;99.90;;;;;;5077025;28;20116;-65
2023/09/28 05:11:15;;;;;;;29.58;6.25;;;17.50;99.90;;;;;;5069824;28;20089;-65
2023/09/28 05:13:41;;;;;;;31.08;6.78;;;17.50;99.90;;;;;;5089093;28;20024;-65
2023/09/28 05:16:07;;;;;;;35.22;8.65;;;17.60;99.90;;;;;;5077448;28;20027;-65
2023/09/28 05:18:33;;;;;;;40.70;7.07;;;17.60;99.90;;;;;;5084389;28;20035;-65
2023/09/28 05:20:58;;;;;;;34.88;7.30;;;17.60;99.90;;;;;;5084725;28;20032;-65
2023/09/28 05:23:25;;;;;;;29.45;6.75;;;17.60;99.90;;;;;;5077826;28;20392;-65
2023/09/28 05:25:51;;;;;;;40.70;8.02;;;17.70;99.90;;;;;;5087908;28;20082;-65
2023/09/28 05:28:16;;;;;;;29.33;7.20;;;17.70;99.90;;;;;;5074911;28;20024;-65
2023/09/28 05:30:42;;;;;;;34.08;7.05;;;17.70;99.90;;;;;;5078687;28;20044;-65
2023/09/28 05:33:07;;;;;;;32.00;6.72;;;17.70;99.90;;;;;;5067810;28;20433;-65
2023/09/28 05:35:33;;;;;;;30.10;6.00;;;17.70;99.90;;;;;;5075145;28;20035;-65
2023/09/28 05:37:59;;;;;;;26.08;5.80;;;17.70;99.90;;;;;;5084155;28;20021;-65
2023/09/28 05:40:25;;;;;;;26.70;6.38;;;17.70;99.90;;;;;;5075007;28;20040;-66
2023/09/28 05:42:51;;;;;;;32.42;6.47;;;17.70;99.90;;;;;;5083977;28;20024;-66
2023/09/28 05:45:16;;;;;;;30.58;6.25;;;17.70;99.90;;;;;;5078502;28;20039;-66
2023/09/28 05:47:42;;;;;;;29.50;6.88;;;17.70;99.90;;;;;;5087686;28;20025;-65
2023/09/28 05:50:08;;;;;;;34.22;5.97;;;17.80;99.90;;;;;;5079089;28;20040;-64
2023/09/28 05:52:33;;;;;;;26.15;5.45;;;17.80;99.90;;;;;;5079961;28;20036;-64
2023/09/28 05:54:59;;;;;;;29.48;6.65;;;17.80;99.90;;;;;;5088090;28;20060;-64
2023/09/28 05:57:25;;;;;;;30.20;6.40;;;17.90;99.90;;;;;;5075446;28;20034;-64
2023/09/28 05:59:50;;;;;;;25.75;4.80;;;17.90;99.90;;;;;;5085049;28;20110;-66
2023/09/28 06:02:18;;;;;;;31.33;6.10;;;18.00;99.90;;;;;;5079685;28;20039;-64
2023/09/28 06:04:44;;;;;;;30.25;5.85;;;18.00;99.90;;;;;;5077316;28;20024;-64
2023/09/28 06:07:10;;;;;;;27.85;5.20;;;18.10;99.90;;;;;;5088941;28;20026;-64
2023/09/28 06:09:37;;;;;;;23.70;4.72;;;18.20;99.90;;;;;;5075653;28;20527;-65
2023/09/28 06:12:02;;;;;;;21.90;4.72;;;18.20;99.90;;;;;;5083381;28;20043;-65
2023/09/28 06:14:28;;;;;;;25.40;4.63;;;18.20;99.90;;;;;;5070998;28;20024;-65
2023/09/28 06:16:53;;;;;;;23.80;5.18;;;18.30;99.90;;;;;;5082086;28;20024;-64
2023/09/28 06:19:19;;;;;;;29.27;5.72;;;18.30;99.90;;;;;;5085249;28;20364;-65
2023/09/28 06:21:45;;;;;;;26.10;5.90;;;18.30;99.90;;;;;;5070807;28;20028;-64
2023/09/28 06:24:11;;;;;;;25.98;5.70;;;18.30;99.90;;;;;;5075991;28;20037;-65
2023/09/28 06:26:38;;;;;;;21.63;4.32;;;18.40;99.90;;;;;;5084351;28;20043;-65
2023/09/28 06:29:04;;;;;;;27.63;5.10;;;18.50;99.90;;;;;;5075161;28;20028;-65
2023/09/28 06:31:30;;;;;;;23.20;4.53;;;18.50;99.90;;;;;;5088079;28;20060;-65
2023/09/28 06:33:56;;;;;;;24.77;5.63;;;18.50;99.90;;;;;;5070092;28;20381;-64
2023/09/28 06:36:25;;;;;;;26.70;4.60;;;18.60;99.90;;;;;;5065917;28;20033;-65
2023/09/28 06:38:51;;;;;;;23.40;5.43;;;18.60;99.90;;;;;;5084726;28;20020;-65
2023/09/28 06:41:17;;;;;;;24.27;4.22;;;18.70;99.90;;;;;;5075209;28;20047;-65
2023/09/28 06:43:42;;;;;;;28.98;5.85;;;18.80;99.90;;;;;;5086033;28;20029;-65
2023/09/28 06:46:08;;;;;;;29.98;5.72;;;18.90;99.90;;;;;;5080626;28;20032;-65
2023/09/28 06:48:34;;;;;;;24.42;5.20;;;19.00;99.90;;;;;;5079298;28;20029;-65
2023/09/28 06:50:59;;;;;;;26.60;5.57;;;19.10;99.90;;;;;;5082221;28;20098;-65
2023/09/28 06:53:26;;;;;;;21.52;4.50;;;19.10;99.90;;;;;;5089203;28;20058;-65
2023/09/28 06:55:52;;;;;;;23.75;5.00;;;19.10;99.90;;;;;;5082302;28;20431;-65
2023/09/28 06:58:19;;;;;;;26.08;5.45;;;19.10;99.90;;;;;;5085120;28;20111;-65
2023/09/28 07:00:45;;;;;;;24.92;5.97;;;19.10;99.90;;;;;;5089240;28;20028;-64
2023/09/28 07:03:11;;;;;;;25.38;6.22;;;19.10;99.90;;;;;;5078010;28;20025;-64
2023/09/28 07:05:38;;;;;;;25.98;5.95;;;19.20;99.90;;;;;;5079673;28;20097;-65
2023/09/28 07:08:05;;;;;;;28.88;5.68;;;19.10;99.90;;;;;;5085218;28;20036;-64
2023/09/28 07:10:34;;;;;;;21.55;5.07;;;19.10;99.90;;;;;;5085976;28;20036;-65
2023/09/28 07:13:02;;;;;;;24.15;6.18;;;19.10;99.90;;;;;;5077311;28;20482;-65
2023/09/28 07:15:31;;;;;;;27.63;5.30;;;19.20;99.90;;;;;;5091841;28;20031;-65
2023/09/28 07:17:57;;;;;;;23.52;5.43;;;19.10;99.90;;;;;;5081864;28;20020;-65
2023/09/28 07:20:25;;;;;;;23.05;5.30;;;19.20;99.90;;;;;;5077738;28;20545;-65
2023/09/28 07:22:50;;;;;;;25.90;5.10;;;19.20;99.90;;;;;;5076171;28;20051;-65
2023/09/28 07:25:16;;;;;;;22.20;4.60;;;19.20;99.90;;;;;;5086657;28;20418;-65
2023/09/28 07:27:43;;;;;;;20.60;5.30;;;19.20;99.90;;;;;;5083756;28;20030;-64
2023/09/28 07:30:11;;;;;;;22.15;5.00;;;19.20;99.90;;;;;;5083035;28;20035;-65
2023/09/28 07:32:37;;;;;;;18.15;5.57;;;19.20;99.90;;;;;;5090620;28;20040;-65
2023/09/28 07:35:03;;;;;;;21.52;4.20;;;19.20;99.90;;;;;;5094302;28;20132;-65
2023/09/28 07:37:28;;;;;;;22.20;4.95;;;19.20;99.90;;;;;;5073136;28;20421;-65
2023/09/28 07:39:54;;;;;;;25.88;5.40;;;19.20;99.90;;;;;;5077946;28;20024;-65
2023/09/28 07:42:20;;;;;;;24.33;5.57;;;19.30;99.90;;;;;;5085208;28;20051;-65
2023/09/28 07:44:47;;;;;;;28.33;5.63;;;19.20;99.90;;;;;;5088884;28;20057;-65
2023/09/28 07:47:13;;;;;;;25.33;5.78;;;19.20;99.90;;;;;;5092743;28;20020;-65
2023/09/28 07:49:40;;;;;;;24.73;5.00;;;19.30;99.90;;;;;;5089870;28;20076;-65
2023/09/28 07:52:08;;;;;;;23.70;5.60;;;19.30;99.90;;;;;;5082499;28;20040;-65
2023/09/28 07:54:34;;;;;;;27.08;5.35;;;19.30;99.90;;;;;;5071350;28;20485;-65
2023/09/28 07:57:00;;;;;;;31.25;7.05;;;19.40;99.90;;;;;;5075137;28;20021;-65
2023/09/28 07:59:25;;;;;;;27.92;6.28;;;19.40;99.90;;;;;;5090354;28;20507;-65
2023/09/28 08:01:51;;;;;;;22.90;5.43;;;19.40;99.90;;;;;;5080748;28;20115;-65
2023/09/28 08:04:16;;;;;;;27.50;5.10;;;19.40;99.90;;;;;;5083896;28;20028;-65
2023/09/28 08:06:42;;;;;;;27.33;4.63;;;19.40;99.90;;;;;;5087558;28;20032;-65
2023/09/28 08:09:13;;;;;;;28.42;6.20;;;19.50;99.90;;;;;;5077055;28;20035;-65
2023/09/28 08:11:40;;;;;;;23.33;5.95;;;19.60;99.90;;;;;;5080313;28;20036;-65
2023/09/28 08:14:06;;;;;;;28.42;6.68;;;19.60;99.90;;;;;;5084925;28;20033;-65
2023/09/28 08:16:31;;;;;;;29.08;7.05;;;19.70;99.90;;;;;;5079796;28;20077;-65
2023/09/28 08:18:57;;;;;;;28.52;7.28;;;19.80;99.90;;;;;;5089222;28;20037;-65
2023/09/28 08:21:26;;;;;;;26.83;6.55;;;19.90;99.90;;;;;;5077046;28;20033;-65
2023/09/28 08:23:52;;;;;;;18.95;4.18;;;20.00;99.90;;;;;;5093673;28;20024;-65
2023/09/28 08:26:17;;;;;;;28.35;6.15;;;20.00;99.90;;;;;;5081881;28;20020;-64
2023/09/28 08:28:43;;;;;;;26.83;6.63;;;20.00;99.90;;;;;;5072190;28;20354;-64
2023/09/28 08:31:10;;;;;;;25.67;6.40;;;20.20;99.90;;;;;;5075759;28;20502;-64
2023/09/28 08:33:36;;;;;;;24.50;6.45;;;20.20;99.90;;;;;;5093246;28;20032;-64
2023/09/28 08:36:01;;;;;;;25.80;5.80;;;20.30;99.90;;;;;;5092975;28;20498;-64
2023/09/28 08:38:27;;;;;;;22.00;5.43;;;20.30;99.90;;;;;;5081845;28;20025;-66
2023/09/28 08:40:59;;;;;;;21.67;4.68;;;20.20;99.90;;;;;;5087161;28;20035;-65
2023/09/28 08:43:34;;;;;;;22.15;5.90;;;20.20;99.90;;;;;;5072117;28;20465;-66
2023/09/28 08:46:03;;;;;;;21.58;4.65;;;20.20;99.90;;;;;;5077147;28;20035;-66
2023/09/28 08:48:31;;;;;;;26.20;6.50;;;20.20;99.90;;;;;;5082562;28;20029;-66
2023/09/28 08:51:07;;;;;;;29.30;6.68;;;20.20;99.90;;;;;;5073500;28;20404;-66
2023/09/28 08:53:34;;;;;;;24.15;5.57;;;20.20;99.90;;;;;;5070740;28;20039;-65
2023/09/28 08:55:59;;;;;;;20.77;4.97;;;20.20;99.90;;;;;;5086052;28;20468;-65
2023/09/28 08:58:25;;;;;;;26.40;5.28;;;20.30;99.90;;;;;;5085781;28;20082;-65
2023/09/28 09:00:51;;;;;;;26.02;5.72;;;20.30;99.90;;;;;;5078095;28;20027;-65
2023/09/28 09:03:18;;;;;;;23.02;5.53;;;20.30;99.90;;;;;;5089484;28;20063;-65
2023/09/28 09:05:46;;;;;;;25.70;5.57;;;20.30;99.90;;;;;;5078430;28;20024;-65
2023/09/28 09:08:14;;;;;;;22.80;4.80;;;20.30;99.90;;;;;;5083392;28;20099;-65
2023/09/28 09:10:40;;;;;;;23.80;6.03;;;20.40;99.90;;;;;;5074042;28;20021;-65
2023/09/28 09:13:15;;;;;;;22.55;5.43;;;20.40;99.90;;;;;;5074798;28;20123;-65
2023/09/28 09:15:43;;;;;;;22.10;4.10;;;20.40;99.90;;;;;;5076200;28;20024;-66
2023/09/28 09:18:15;;;;;;;21.30;4.97;;;20.30;99.90;;;;;;5076135;28;20043;-65
2023/09/28 09:20:40;;;;;;;;;;;20.40;99.90;;;;;;5068674;28;20086;-65
2023/09/28 09:23:16;;;;;;;27.30;4.65;;;20.50;99.90;;;;;;5090001;28;19908;-65
2023/09/28 09:25:53;;;;;;;18.13;4.35;;;20.60;99.90;;;;;;5088103;28;20048;-65
2023/09/28 09:28:28;;;;;;;21.08;4.70;;;20.70;99.90;;;;;;5077902;28;20483;-65
2023/09/28 09:30:55;;;;;;;19.70;4.40;;;20.70;99.90;;;;;;5088038;28;20463;-65
2023/09/28 09:33:21;;;;;;;24.65;4.32;;;20.90;99.90;;;;;;5076001;28;20094;-65
2023/09/28 09:35:47;;;;;;;24.10;4.47;;;21.30;99.90;;;;;;5085836;28;20036;-66
2023/09/28 09:38:12;;;;;;;20.25;5.25;;;21.90;99.90;;;;;;5081872;28;20107;-65
2023/09/28 09:40:38;;;;;;;20.85;4.40;;;22.50;99.90;;;;;;5079755;28;20043;-64
2023/09/28 09:43:08;;;;;;;21.48;3.92;;;23.00;99.90;;;;;;5084438;28;20437;-64
2023/09/28 09:45:38;;;;;;;21.13;4.53;;;23.30;99.90;;;;;;5067401;28;20027;-65
2023/09/28 09:48:06;;;;;;;24.15;4.85;;;23.20;99.90;;;;;;5075942;28;20024;-65
2023/09/28 09:50:35;;;;;;;23.98;4.68;;;23.00;99.90;;;;;;5082227;28;20052;-65
2023/09/28 09:53:04;;;;;;;20.80;3.97;;;23.00;99.90;;;;;;5061842;28;20047;-65
2023/09/28 09:55:31;;;;;;;26.85;5.07;;;22.90;99.90;;;;;;5078058;28;20738;-64
2023/09/28 09:58:03;;;;;;;23.15;5.03;;;22.80;99.90;;;;;;5076043;28;20035;-64
2023/09/28 10:00:33;;;;;;;24.25;4.53;;;22.60;99.90;;;;;;5081063;28;20035;-65
2023/09/28 10:03:03;;;;;;;25.48;6.18;;;22.50;99.90;;;;;;5071929;28;20052;-66
2023/09/28 10:05:29;;;;;;;21.30;3.92;;;22.50;99.90;;;;;;5059873;28;20024;-66
2023/09/28 10:07:57;;;;;;;23.05;4.38;;;22.50;99.90;;;;;;5085423;28;20020;-66
2023/09/28 10:10:23;;;;;;;24.90;4.53;;;22.60;99.90;;;;;;5070343;28;20424;-65
2023/09/28 10:12:50;;;;;;;20.00;3.97;;;22.60;99.90;;;;;;5086217;28;20067;-66
2023/09/28 10:15:16;;;;;;;22.45;5.10;;;22.70;99.90;;;;;;5075506;28;20032;-65
2023/09/28 10:17:44;;;;;;;21.20;4.00;;;22.70;99.90;;;;;;5075422;28;20036;-66
2023/09/28 10:20:13;;;;;;;19.70;4.32;;;22.80;99.90;;;;;;5080203;28;20073;-65
2023/09/28 10:22:43;;;;;;;21.90;3.42;;;23.00;99.90;;;;;;5083101;28;20031;-65
2023/09/28 10:25:12;;;;;;;25.58;4.70;;;23.00;99.90;;;;;;5088678;28;20115;-65
2023/09/28 10:27:39;;;;;;;18.08;3.13;;;22.90;99.90;;;;;;5065877;28;20115;-64
2023/09/28 10:30:19;;;;;;;20.23;4.50;;;22.80;99.90;;;;;;5086658;28;20105;-65
2023/09/28 10:32:45;;;;;;;26.63;4.75;;;22.60;99.90;;;;;;5082726;28;20045;-65
2023/09/28 10:35:31;;;;;;;21.17;4.70;;;22.50;99.90;;;;;;5070460;28;20035;-65
2023/09/28 10:38:19;;;;;;;22.90;3.50;;;22.40;99.90;;;;;;5060202;28;20041;-65
2023/09/28 10:40:57;;;;;;;21.63;4.15;;;22.20;99.90;;;;;;5072052;28;20063;-65
2023/09/28 10:43:28;;;;;;;22.42;4.53;;;22.10;99.90;;;;;;5073558;28;20370;-65
2023/09/28 10:45:53;;;;;;;19.85;4.45;;;22.10;99.90;;;;;;5088313;28;20035;-65
2023/09/28 10:48:19;;;;;;;20.67;4.05;;;22.10;99.90;;;;;;5083781;28;20029;-65
2023/09/28 10:50:46;;;;;;;20.48;3.83;;;22.20;99.90;;;;;;5062918;28;20055;-64
2023/09/28 10:53:12;;;;;;;18.52;3.78;;;22.20;99.90;;;;;;5091737;28;20046;-65
2023/09/28 10:55:40;;;;;;;21.02;3.90;;;22.30;99.90;;;;;;5079577;28;20028;-65
2023/09/28 10:58:07;;;;;;;19.90;4.22;;;22.30;99.90;;;;;;5087469;28;20036;-64
2023/09/28 11:00:33;;;;;;;23.35;4.20;;;22.30;99.90;;;;;;5076503;28;20038;-65
2023/09/28 11:02:59;;;;;;;20.38;3.70;;;22.50;99.90;;;;;;5077762;28;20040;-66
2023/09/28 11:05:25;;;;;;;18.20;3.78;;;22.60;99.90;;;;;;5075447;28;20043;-65
2023/09/28 11:07:51;;;;;;;25.55;4.40;;;22.70;99.90;;;;;;5085476;28;20055;-65
2023/09/28 11:10:17;;;;;;;17.55;3.08;;;22.90;99.90;;;;;;5079375;28;20036;-66
2023/09/28 11:12:44;;;;;;;17.17;3.15;;;23.10;99.90;;;;;;5075470;28;20130;-65
2023/09/28 11:15:14;;;;;;;17.58;3.72;;;23.20;99.90;;;;;;5075508;28;20027;-65
2023/09/28 11:17:43;;;;;;;13.18;2.85;;;23.30;99.90;;;;;;5075041;28;20036;-65
2023/09/28 11:20:12;;;;;;;22.80;3.50;;;23.20;99.90;;;;;;5070430;28;20032;-65
2023/09/28 11:22:38;;;;;;;17.23;2.83;;;23.00;99.90;;;;;;5062325;28;20170;-65
2023/09/28 11:25:05;;;;;;;16.25;3.65;;;22.80;99.90;;;;;;5058971;28;20068;-65
2023/09/28 11:27:31;;;;;;;21.25;3.33;;;22.80;99.90;;;;;;5054699;28;20059;-65
2023/09/28 11:29:58;;;;;;;22.20;3.55;;;22.80;99.90;;;;;;5060537;28;20029;-65
2023/09/28 11:32:24;;;;;;;18.98;3.45;;;22.70;99.90;;;;;;5060989;28;20111;-65
2023/09/28 11:34:53;;;;;;;19.00;3.83;;;22.50;99.90;;;;;;5063475;28;20064;-65
2023/09/28 11:37:22;;;;;;;18.63;3.50;;;22.30;99.90;;;;;;5074907;28;20068;-65
2023/09/28 11:39:48;;;;;;;20.55;3.90;;;22.20;99.90;;;;;;5074037;28;20442;-65
2023/09/28 11:42:14;;;;;;;17.52;4.18;;;22.10;99.90;;;;;;5074690;28;20525;-65
2023/09/28 11:44:42;;;;;;;18.35;3.70;;;22.00;99.90;;;;;;5086724;28;20036;-65
2023/09/28 11:47:07;;;;;;;22.33;3.55;;;21.80;99.90;;;;;;5089911;28;20484;-65
2023/09/28 11:49:37;;;;;;;16.08;3.33;;;21.80;99.90;;;;;;5074071;28;20036;-65
2023/09/28 11:52:03;;;;;;;20.50;3.30;;;21.80;99.90;;;;;;5074288;28;20032;-65
2023/09/28 11:54:30;;;;;;;22.02;3.92;;;21.70;99.90;;;;;;5074882;28;20032;-65
2023/09/28 11:56:57;;;;;;;21.17;3.47;;;21.80;99.90;;;;;;5070410;28;20020;-65
2023/09/28 11:59:23;;;;;;;21.52;3.38;;;21.90;99.90;;;;;;5074287;28;20042;-64
2023/09/28 12:01:51;;;;;;;21.77;3.38;;;21.80;99.90;;;;;;5067792;28;20040;-64
2023/09/28 12:04:17;;;;;;;18.60;3.60;;;21.70;99.90;;;;;;5061534;28;20473;-64
2023/09/28 12:06:44;;;;;;;19.08;3.85;;;21.70;99.90;;;;;;5069778;28;20138;-65
2023/09/28 12:09:10;;;;;;;23.00;3.90;;;21.60;99.90;;;;;;5074558;28;20033;-65
2023/09/28 12:11:39;;;;;;;18.15;3.70;;;21.70;99.90;;;;;;5072619;28;20048;-65
2023/09/28 12:14:05;;;;;;;20.27;3.45;;;21.70;99.90;;;;;;5063009;28;20059;-65
2023/09/28 12:16:31;;;;;;;19.30;3.78;;;21.60;99.90;;;;;;5068503;28;20465;-65
2023/09/28 12:18:57;;;;;;;24.00;3.78;;;21.50;99.90;;;;;;5074050;28;20035;-65
2023/09/28 12:21:22;;;;;;;20.08;3.70;;;21.40;99.90;;;;;;5073708;28;20052;-65
2023/09/28 12:23:48;;;;;;;18.77;3.45;;;21.30;99.90;;;;;;5073619;28;20518;-65
2023/09/28 12:26:13;;;;;;;18.77;3.63;;;21.20;99.90;;;;;;5073858;28;20051;-64
2023/09/28 12:28:43;;;;;;;19.48;3.78;;;21.10;99.90;;;;;;5073737;28;20107;-65
2023/09/28 12:31:08;;;;;;;20.08;3.83;;;21.00;99.90;;;;;;5074046;28;20071;-64
2023/09/28 12:33:36;;;;;;;17.58;3.47;;;20.90;99.90;;;;;;5073528;28;20072;-65
2023/09/28 12:36:02;;;;;;;20.85;3.58;;;20.90;99.90;;;;;;5082492;28;20364;-64
2023/09/28 12:38:27;;;;;;;20.38;3.85;;;20.80;99.90;;;;;;5093928;28;20466;-65
2023/09/28 12:40:53;;;;;;;18.08;3.63;;;20.70;99.90;;;;;;5083964;28;20064;-65